createdAt,value
2023-05-06T00:02:10.938Z,53.96
2023-05-06T00:04:41.044Z,53.84
2023-05-06T00:07:08.756Z,53.74
2023-05-06T00:09:35.679Z,53.80
2023-05-06T00:12:02.877Z,53.38
2023-05-06T00:14:29.797Z,53.47
2023-05-06T00:16:56.682Z,53.91
2023-05-06T00:19:23.538Z,53.86
2023-05-06T00:21:50.561Z,53.57
2023-05-06T00:24:17.493Z,53.38
2023-05-06T00:26:44.356Z,53.19
2023-05-06T00:29:11.220Z,53.07
2023-05-06T00:31:38.201Z,53.33
2023-05-06T00:34:05.116Z,53.43
2023-05-06T00:36:32.334Z,53.25
2023-05-06T00:38:59.196Z,53.52
2023-05-06T00:41:26.309Z,53.41
2023-05-06T00:43:53.210Z,53.65
2023-05-06T00:46:20.265Z,53.77
2023-05-06T00:48:47.278Z,53.88
2023-05-06T00:51:14.096Z,53.94
2023-05-06T00:53:41.213Z,53.96
2023-05-06T00:56:08.233Z,54.27
2023-05-06T00:58:35.064Z,54.27
2023-05-06T01:01:02.346Z,54.34
2023-05-06T01:03:29.461Z,54.26
2023-05-06T01:06:21.340Z,54.44
2023-05-06T01:09:17.576Z,54.88
2023-05-06T01:11:47.311Z,54.64
2023-05-06T01:14:22.031Z,54.23
2023-05-06T01:16:52.783Z,53.81
2023-05-06T01:19:29.632Z,53.83
2023-05-06T01:21:56.804Z,53.66
2023-05-06T01:24:35.386Z,53.59
2023-05-06T01:27:02.598Z,53.45
2023-05-06T01:29:29.504Z,53.25
2023-05-06T01:31:57.482Z,53.29
2023-05-06T01:34:28.221Z,53.31
2023-05-06T01:37:12.546Z,53.29
2023-05-06T01:39:39.394Z,53.07
2023-05-06T01:42:06.494Z,52.58
2023-05-06T01:44:33.940Z,52.52
2023-05-06T01:47:01.901Z,52.68
2023-05-06T01:49:28.943Z,52.91
2023-05-06T01:51:55.825Z,53.20
2023-05-06T01:54:23.578Z,53.29
2023-05-06T01:56:50.538Z,53.31
2023-05-06T01:59:17.585Z,53.46
2023-05-06T02:01:44.573Z,53.21
2023-05-06T02:04:11.583Z,53.27
2023-05-06T02:06:39.010Z,53.37
2023-05-06T02:09:06.394Z,53.35
2023-05-06T02:11:37.537Z,53.57
2023-05-06T02:14:06.713Z,53.97
2023-05-06T02:16:37.240Z,54.25
2023-05-06T02:19:04.553Z,54.07
2023-05-06T02:21:32.142Z,53.93
2023-05-06T02:23:59.101Z,54.30
2023-05-06T02:26:25.992Z,54.14
2023-05-06T02:28:55.177Z,54.18
2023-05-06T02:31:22.182Z,54.42
2023-05-06T02:33:49.119Z,54.73
2023-05-06T02:36:16.120Z,54.94
2023-05-06T02:38:42.987Z,54.94
2023-05-06T02:41:10.709Z,55.12
2023-05-06T02:43:37.564Z,54.83
2023-05-06T02:46:05.085Z,54.38
2023-05-06T02:48:32.027Z,54.35
2023-05-06T02:50:59.224Z,54.47
2023-05-06T02:53:26.265Z,54.74
2023-05-06T02:55:55.593Z,54.69
2023-05-06T02:58:22.505Z,54.61
2023-05-06T03:00:49.475Z,54.61
2023-05-06T03:03:17.406Z,54.60
2023-05-06T03:05:44.316Z,54.64
2023-05-06T03:08:11.210Z,54.81
2023-05-06T03:10:38.305Z,54.84
2023-05-06T03:13:05.761Z,54.87
2023-05-06T03:15:32.692Z,54.90
2023-05-06T03:17:59.936Z,55.19
2023-05-06T03:20:28.893Z,55.40
2023-05-06T03:22:56.520Z,55.40
2023-05-06T03:25:23.683Z,55.51
2023-05-06T03:27:51.090Z,55.70
2023-05-06T03:30:20.126Z,55.74
2023-05-06T03:32:48.754Z,55.71
2023-05-06T03:35:20.363Z,55.72
2023-05-06T03:37:50.460Z,55.81
2023-05-06T03:40:17.507Z,55.92
2023-05-06T03:42:45.110Z,56.25
2023-05-06T03:45:12.621Z,56.22
2023-05-06T03:47:42.691Z,55.94
2023-05-06T03:50:10.216Z,55.86
2023-05-06T03:52:37.246Z,55.97
2023-05-06T03:55:05.055Z,56.00
2023-05-06T03:57:32.223Z,56.34
2023-05-06T03:59:59.258Z,56.46
2023-05-06T04:02:26.949Z,56.45
2023-05-06T04:04:54.563Z,56.43
2023-05-06T04:07:21.767Z,56.42
2023-05-06T04:09:48.609Z,56.54
2023-05-06T04:12:15.922Z,56.36
2023-05-06T04:14:42.914Z,56.54
2023-05-06T04:17:10.105Z,56.30
2023-05-06T04:19:38.189Z,56.36
2023-05-06T04:22:05.066Z,56.72
2023-05-06T04:24:32.045Z,57.00
2023-05-06T04:27:00.091Z,56.42
2023-05-06T04:29:27.511Z,56.43
2023-05-06T04:31:58.167Z,56.57
2023-05-06T04:34:27.848Z,56.70
2023-05-06T04:36:55.436Z,56.59
2023-05-06T04:39:28.942Z,55.96
2023-05-06T04:41:56.957Z,55.76
2023-05-06T04:44:29.630Z,55.74
2023-05-06T04:46:56.708Z,55.09
2023-05-06T04:49:23.784Z,55.04
2023-05-06T04:51:50.995Z,54.71
2023-05-06T04:54:18.414Z,54.46
2023-05-06T04:56:46.072Z,54.27
2023-05-06T04:59:13.489Z,54.61
2023-05-06T05:01:40.699Z,54.06
2023-05-06T05:04:08.072Z,53.98
2023-05-06T05:06:35.348Z,54.11
2023-05-06T05:09:02.529Z,53.51
2023-05-06T05:11:29.975Z,53.69
2023-05-06T05:13:58.410Z,53.68
2023-05-06T05:16:27.424Z,52.88
2023-05-06T05:18:54.598Z,52.74
2023-05-06T05:21:23.327Z,52.80
2023-05-06T05:23:50.212Z,52.51
2023-05-06T05:26:17.178Z,52.17
2023-05-06T05:28:45.272Z,52.16
2023-05-06T05:31:12.468Z,52.04
2023-05-06T05:33:39.589Z,52.15
2023-05-06T05:36:08.422Z,52.29
2023-05-06T05:38:35.773Z,52.26
2023-05-06T05:41:02.841Z,52.00
2023-05-06T05:43:31.421Z,51.80
2023-05-06T05:45:58.634Z,52.12
2023-05-06T05:48:25.609Z,52.34
2023-05-06T05:50:57.589Z,51.81
2023-05-06T05:53:24.870Z,51.74
2023-05-06T05:55:51.733Z,51.45
2023-05-06T05:58:18.862Z,51.46
2023-05-06T06:00:45.768Z,52.08
2023-05-06T06:03:13.251Z,52.03
2023-05-06T06:05:40.310Z,51.40
2023-05-06T06:08:07.230Z,51.17
2023-05-06T06:10:34.171Z,50.78
2023-05-06T06:13:03.467Z,50.59
2023-05-06T06:15:31.756Z,50.60
2023-05-06T06:17:58.862Z,50.73
2023-05-06T06:20:26.939Z,50.90
2023-05-06T06:22:53.827Z,51.23
2023-05-06T06:25:21.730Z,51.20
2023-05-06T06:27:48.650Z,50.81
2023-05-06T06:30:15.706Z,50.57
2023-05-06T06:32:53.016Z,50.95
2023-05-06T06:35:23.884Z,51.21
2023-05-06T06:37:50.807Z,50.98
2023-05-06T06:40:17.901Z,50.64
2023-05-06T06:42:44.910Z,50.65
2023-05-06T06:45:35.290Z,51.22
2023-05-06T06:48:02.366Z,50.97
2023-05-06T06:50:30.289Z,50.68
2023-05-06T06:52:57.521Z,50.24
2023-05-06T06:55:24.582Z,50.59
2023-05-06T06:57:51.389Z,50.66
2023-05-06T07:00:18.270Z,50.43
2023-05-06T07:02:48.141Z,50.03
2023-05-06T07:05:15.226Z,50.31
2023-05-06T07:07:42.220Z,49.74
2023-05-06T07:10:09.322Z,49.71
2023-05-06T07:12:36.371Z,49.62
2023-05-06T07:15:07.212Z,49.70
2023-05-06T07:17:34.129Z,50.24
2023-05-06T07:20:01.536Z,49.85
2023-05-06T07:22:34.171Z,49.66
2023-05-06T07:25:01.018Z,48.77
2023-05-06T07:27:30.437Z,48.73
2023-05-06T07:29:57.507Z,48.85
2023-05-06T07:32:24.528Z,48.98
2023-05-06T07:36:40.989Z,48.81
2023-05-06T07:39:08.252Z,49.21
2023-05-06T07:41:42.596Z,49.24
2023-05-06T07:44:09.651Z,49.27
2023-05-06T07:46:36.680Z,49.06
2023-05-06T07:49:05.640Z,49.23
2023-05-06T07:51:33.192Z,48.72
2023-05-06T07:54:00.162Z,48.56
2023-05-06T07:56:27.072Z,48.71
2023-05-06T07:58:54.141Z,48.16
2023-05-06T08:01:21.015Z,47.88
2023-05-06T08:03:48.012Z,47.71
2023-05-06T08:06:15.053Z,47.91
2023-05-06T08:08:41.950Z,47.90
2023-05-06T08:11:08.876Z,47.19
2023-05-06T08:13:35.881Z,46.68
2023-05-06T08:16:02.846Z,46.96
2023-05-06T08:18:30.242Z,47.16
2023-05-06T08:20:57.433Z,47.07
2023-05-06T08:23:24.535Z,47.21
2023-05-06T08:25:51.420Z,46.02
2023-05-06T08:28:18.738Z,45.76
2023-05-06T08:30:48.641Z,45.62
2023-05-06T08:33:15.714Z,45.55
2023-05-06T08:35:42.794Z,45.62
2023-05-06T08:38:09.844Z,45.25
2023-05-06T08:40:43.557Z,44.60
2023-05-06T08:43:15.016Z,45.37
2023-05-06T08:45:42.665Z,45.40
2023-05-06T08:48:09.746Z,44.49
2023-05-06T08:50:41.089Z,44.23
2023-05-06T08:53:13.845Z,43.74
2023-05-06T08:55:42.136Z,42.54
2023-05-06T08:58:09.137Z,42.97
2023-05-06T09:00:36.041Z,43.13
2023-05-06T09:03:03.480Z,43.23
2023-05-06T09:05:30.511Z,42.28
2023-05-06T09:07:57.429Z,42.15
2023-05-06T09:10:24.449Z,42.38
2023-05-06T09:12:54.032Z,41.68
2023-05-06T09:15:25.625Z,41.24
2023-05-06T09:17:54.183Z,41.12
2023-05-06T09:20:21.194Z,41.65
2023-05-06T09:22:49.312Z,40.94
2023-05-06T09:25:16.626Z,40.81
2023-05-06T09:27:43.711Z,40.19
2023-05-06T09:30:14.650Z,40.13
2023-05-06T09:32:42.154Z,39.44
2023-05-06T09:35:10.115Z,38.93
2023-05-06T09:37:37.345Z,38.15
2023-05-06T09:40:04.651Z,37.52
2023-05-06T09:42:31.888Z,38.15
2023-05-06T09:45:01.966Z,38.48
2023-05-06T09:47:34.395Z,38.91
2023-05-06T09:50:05.473Z,39.72
2023-05-06T09:52:32.373Z,39.36
2023-05-06T09:54:59.434Z,38.56
2023-05-06T09:57:26.438Z,39.30
2023-05-06T09:59:53.518Z,39.54
2023-05-06T10:02:20.907Z,39.10
2023-05-06T10:04:49.283Z,38.56
2023-05-06T10:07:19.741Z,38.10
2023-05-06T10:09:46.728Z,37.88
2023-05-06T10:12:13.738Z,38.22
2023-05-06T10:14:40.824Z,38.06
2023-05-06T10:17:11.692Z,38.01
2023-05-06T10:19:45.368Z,37.62
2023-05-06T10:22:37.197Z,37.03
2023-05-06T10:25:07.095Z,37.06
2023-05-06T10:27:35.946Z,37.48
2023-05-06T10:30:03.249Z,36.76
2023-05-06T10:32:32.427Z,36.70
2023-05-06T10:35:05.535Z,37.31
2023-05-06T10:37:32.460Z,36.82
2023-05-06T10:39:59.339Z,36.93
2023-05-06T10:42:38.265Z,36.84
2023-05-06T10:45:06.475Z,36.62
2023-05-06T10:48:07.372Z,36.78
2023-05-06T10:50:34.447Z,36.79
2023-05-06T10:53:01.371Z,36.20
2023-05-06T10:55:36.128Z,35.50
2023-05-06T10:58:11.751Z,35.33
2023-05-06T11:00:38.863Z,35.88
2023-05-06T11:03:07.677Z,36.01
2023-05-06T11:05:51.734Z,35.85
2023-05-06T11:08:22.846Z,35.38
2023-05-06T11:10:49.866Z,35.30
2023-05-06T11:13:37.121Z,35.41
2023-05-06T11:16:04.409Z,35.12
2023-05-06T11:18:33.763Z,35.72
2023-05-06T11:21:03.564Z,36.35
2023-05-06T11:23:43.162Z,36.24
2023-05-06T11:26:10.712Z,36.95
2023-05-06T11:28:39.048Z,36.98
2023-05-06T11:31:06.631Z,36.18
2023-05-06T11:33:36.255Z,35.66
2023-05-06T11:36:04.520Z,35.38
2023-05-06T11:38:44.420Z,35.64
2023-05-06T11:41:11.760Z,35.47
2023-05-06T11:43:38.806Z,35.42
2023-05-06T11:46:05.793Z,35.21
2023-05-06T11:48:32.781Z,35.33
2023-05-06T11:50:59.649Z,34.88
2023-05-06T11:53:26.603Z,34.96
2023-05-06T11:55:53.805Z,35.14
2023-05-06T11:58:26.749Z,35.42
2023-05-06T12:00:54.845Z,35.64
2023-05-06T12:03:22.491Z,36.06
2023-05-06T12:05:50.018Z,36.00
2023-05-06T12:08:26.837Z,35.90
2023-05-06T12:10:56.045Z,35.78
2023-05-06T12:13:23.086Z,35.85
2023-05-06T12:15:50.470Z,35.49
2023-05-06T12:18:18.705Z,35.42
2023-05-06T12:20:45.861Z,35.60
2023-05-06T12:23:13.415Z,36.39
2023-05-06T12:25:41.652Z,37.00
2023-05-06T12:28:19.400Z,36.34
2023-05-06T12:30:46.767Z,35.63
2023-05-06T12:33:13.679Z,35.13
2023-05-06T12:35:41.121Z,35.49
2023-05-06T12:38:15.627Z,35.72
2023-05-06T12:40:43.727Z,35.43
2023-05-06T12:43:10.765Z,35.48
2023-05-06T12:45:40.991Z,35.74
2023-05-06T12:48:08.427Z,35.31
2023-05-06T12:50:36.278Z,35.04
2023-05-06T12:53:07.551Z,35.39
2023-05-06T12:55:35.517Z,35.56
2023-05-06T12:58:02.840Z,35.47
2023-05-06T13:00:29.973Z,35.98
2023-05-06T13:02:56.958Z,36.18
2023-05-06T13:05:23.902Z,36.03
2023-05-06T13:07:51.424Z,35.67
2023-05-06T13:10:18.339Z,35.75
2023-05-06T13:12:45.201Z,35.86
2023-05-06T13:15:12.084Z,35.71
2023-05-06T13:17:39.045Z,35.78
2023-05-06T13:20:07.431Z,35.97
2023-05-06T13:22:46.999Z,36.17
2023-05-06T13:25:20.525Z,36.36
2023-05-06T13:27:47.458Z,36.55
2023-05-06T13:30:14.487Z,36.52
2023-05-06T13:32:41.408Z,36.34
2023-05-06T13:35:09.137Z,36.21
2023-05-06T13:37:36.166Z,35.87
2023-05-06T13:40:03.566Z,35.71
2023-05-06T13:46:39.876Z,36.00
2023-05-06T13:49:08.874Z,36.10
2023-05-06T14:04:08.514Z,34.82
2023-05-06T14:06:35.536Z,34.33
2023-05-06T14:09:07.205Z,34.40
2023-05-06T14:11:34.184Z,34.47
2023-05-06T14:14:02.260Z,34.80
2023-05-06T14:16:29.173Z,34.87
2023-05-06T14:18:56.140Z,34.91
2023-05-06T14:21:23.162Z,35.24
2023-05-06T14:23:50.123Z,35.48
2023-05-06T14:26:17.051Z,35.91
2023-05-06T14:28:44.044Z,35.70
2023-05-06T14:31:11.033Z,36.13
2023-05-06T14:33:38.693Z,35.82
2023-05-06T14:36:06.572Z,36.22
2023-05-06T14:38:33.526Z,36.57
2023-05-06T14:41:01.501Z,36.19
2023-05-06T14:43:28.686Z,35.94
2023-05-06T14:45:55.978Z,36.32
2023-05-06T14:48:25.636Z,36.62
2023-05-06T14:50:53.460Z,36.58
2023-05-06T14:53:20.380Z,36.26
2023-05-06T14:55:49.035Z,36.43
2023-05-06T14:58:16.062Z,37.00
2023-05-06T15:00:43.112Z,37.12
2023-05-06T15:03:10.216Z,37.04
2023-05-06T15:05:37.549Z,37.18
2023-05-06T15:08:04.988Z,37.41
2023-05-06T15:10:32.064Z,37.53
2023-05-06T15:12:59.202Z,37.46
2023-05-06T15:15:27.391Z,37.41
2023-05-06T15:17:57.939Z,37.29
2023-05-06T15:20:34.183Z,36.98
2023-05-06T15:23:02.907Z,37.32
2023-05-06T15:25:35.991Z,37.42
2023-05-06T15:28:06.333Z,37.74
2023-05-06T15:30:33.322Z,37.88
2023-05-06T15:33:02.095Z,37.83
2023-05-06T15:35:32.551Z,37.66
2023-05-06T15:37:59.611Z,37.89
2023-05-06T15:40:26.895Z,37.93
2023-05-06T15:49:11.171Z,37.93
2023-05-06T15:51:41.384Z,38.14
2023-05-06T15:54:09.324Z,37.90
2023-05-06T15:56:40.529Z,38.16
2023-05-06T15:59:08.792Z,38.13
2023-05-06T16:02:16.591Z,38.31
2023-05-06T16:04:23.989Z,38.48
2023-05-06T16:06:51.488Z,38.28
2023-05-06T16:09:18.447Z,38.40
2023-05-06T16:11:45.455Z,38.42
2023-05-06T16:14:12.811Z,38.22
2023-05-06T16:16:39.971Z,38.43
2023-05-06T16:19:07.309Z,38.45
2023-05-06T16:21:34.675Z,38.52
2023-05-06T16:24:02.664Z,38.71
2023-05-06T16:26:29.755Z,38.77
2023-05-06T16:28:56.661Z,38.75
2023-05-06T16:31:23.561Z,38.41
2023-05-06T16:33:51.035Z,38.57
2023-05-06T16:36:17.989Z,38.79
2023-05-06T16:38:44.857Z,38.95
2023-05-06T16:41:12.023Z,39.17
2023-05-06T16:43:38.957Z,39.24
2023-05-06T16:46:06.445Z,39.31
2023-05-06T16:48:33.600Z,39.58
2023-05-06T16:51:00.737Z,39.52
2023-05-06T16:53:28.152Z,39.67
2023-05-06T16:55:55.647Z,39.78
2023-05-06T16:58:22.568Z,39.59
2023-05-06T17:00:52.768Z,39.92
2023-05-06T17:03:20.016Z,39.80
2023-05-06T17:05:47.147Z,39.99
2023-05-06T17:08:16.119Z,39.86
2023-05-06T17:10:43.893Z,39.82
2023-05-06T17:13:10.953Z,40.09
2023-05-06T17:15:37.913Z,40.12
2023-05-06T17:18:04.986Z,40.26
2023-05-06T17:20:33.674Z,40.18
2023-05-06T17:23:04.848Z,40.28
2023-05-06T17:25:31.807Z,40.34
2023-05-06T17:27:58.670Z,40.52
2023-05-06T17:30:25.762Z,40.42
2023-05-06T17:32:52.815Z,40.50
2023-05-06T17:35:20.531Z,40.41
2023-05-06T17:37:47.488Z,40.41
2023-05-06T17:40:15.340Z,40.54
2023-05-06T17:42:42.223Z,40.57
2023-05-06T17:45:09.619Z,40.67
2023-05-06T17:47:37.374Z,40.86
2023-05-06T17:50:04.637Z,40.89
2023-05-06T17:52:32.555Z,40.93
2023-05-06T17:55:15.012Z,41.00
2023-05-06T17:57:46.412Z,41.14
2023-05-06T18:00:14.069Z,41.02
2023-05-06T18:02:43.299Z,41.11
2023-05-06T18:05:10.685Z,41.27
2023-05-06T18:07:37.833Z,41.24
2023-05-06T18:10:05.248Z,41.36
2023-05-06T18:12:32.382Z,41.65
2023-05-06T18:15:00.392Z,41.61
2023-05-06T18:17:27.388Z,41.70
2023-05-06T18:19:54.398Z,41.80
2023-05-06T18:22:21.211Z,41.83
2023-05-06T18:24:48.159Z,41.95
2023-05-06T18:27:15.183Z,42.09
2023-05-06T18:29:42.154Z,42.25
2023-05-06T18:32:09.069Z,42.30
2023-05-06T18:34:36.150Z,42.37
2023-05-06T18:37:03.836Z,42.41
2023-05-06T18:39:30.721Z,42.41
2023-05-06T18:41:57.848Z,42.60
2023-05-06T18:44:26.311Z,42.56
2023-05-06T18:46:53.201Z,42.65
2023-05-06T18:49:20.192Z,42.74
2023-05-06T18:51:47.035Z,42.70
2023-05-06T18:54:14.984Z,42.65
2023-05-06T19:10:21.580Z,41.70
2023-05-06T19:12:48.586Z,41.24
2023-05-06T19:15:15.777Z,41.54
2023-05-06T19:17:42.740Z,41.51
2023-05-06T19:20:09.950Z,41.68
2023-05-06T19:22:36.846Z,41.85
2023-05-06T19:25:03.887Z,41.86
2023-05-06T19:27:30.780Z,42.05
2023-05-06T19:29:57.709Z,42.11
2023-05-06T19:32:24.813Z,42.14
2023-05-06T19:34:51.810Z,42.14
2023-05-06T19:37:18.787Z,42.31
2023-05-06T19:39:46.789Z,42.42
2023-05-06T19:42:13.780Z,42.50
2023-05-06T19:44:41.130Z,42.65
2023-05-06T19:47:08.097Z,42.66
2023-05-06T19:49:35.136Z,42.69
2023-05-06T19:54:10.055Z,42.85
2023-05-06T19:56:37.058Z,42.89
2023-05-06T19:59:03.952Z,42.88
2023-05-06T20:01:30.898Z,43.02
2023-05-06T20:03:57.855Z,43.04
2023-05-06T20:06:25.710Z,43.10
2023-05-06T20:08:52.620Z,43.28
2023-05-06T20:11:19.606Z,43.22
2023-05-06T20:13:46.557Z,43.28
2023-05-06T20:16:13.446Z,43.43
2023-05-06T20:18:40.737Z,43.58
2023-05-06T20:21:07.654Z,43.81
2023-05-06T20:23:34.528Z,43.86
2023-05-06T20:26:01.725Z,43.95
2023-05-06T20:28:28.686Z,44.09
2023-05-06T20:30:55.940Z,44.25
2023-05-06T20:33:22.872Z,44.31
2023-05-06T20:35:51.080Z,44.34
2023-05-06T20:38:19.565Z,44.40
2023-05-06T20:40:47.631Z,44.54
2023-05-06T20:43:14.562Z,44.65
2023-05-06T20:45:41.495Z,44.77
2023-05-06T20:48:08.426Z,44.90
2023-05-06T20:50:35.400Z,45.08
2023-05-06T20:53:02.471Z,45.28
2023-05-06T20:55:29.425Z,45.57
2023-05-06T20:57:56.359Z,45.75
2023-05-06T21:00:23.281Z,46.09
2023-05-06T21:02:50.266Z,46.43
2023-05-06T21:05:17.195Z,46.86
2023-05-06T21:07:44.088Z,47.01
2023-05-06T21:10:11.263Z,47.33
2023-05-06T21:12:38.437Z,47.64
2023-05-06T21:15:06.109Z,48.05
2023-05-06T21:17:33.201Z,48.37
2023-05-06T21:20:00.264Z,48.68
2023-05-06T21:22:27.245Z,48.99
2023-05-06T21:24:55.551Z,49.21
2023-05-06T21:27:22.495Z,49.43
2023-05-06T21:29:54.208Z,49.79
2023-05-06T21:32:21.277Z,49.87
2023-05-06T21:34:48.219Z,50.17
2023-05-06T21:37:15.093Z,50.27
2023-05-06T21:39:42.034Z,50.43
2023-05-06T21:42:08.924Z,50.67
2023-05-06T21:44:35.975Z,50.83
2023-05-06T21:47:03.108Z,51.05
2023-05-06T21:49:30.009Z,51.17
2023-05-06T21:51:56.901Z,51.33
2023-05-06T21:54:24.885Z,51.64
2023-05-06T21:56:51.753Z,51.82
2023-05-06T21:59:19.917Z,51.96
2023-05-06T22:01:46.917Z,52.05
2023-05-06T22:04:15.417Z,52.23
2023-05-06T22:07:00.631Z,52.30
2023-05-06T22:09:27.538Z,52.38
2023-05-06T22:11:54.440Z,52.47
2023-05-06T22:14:24.355Z,52.39
2023-05-06T22:16:54.218Z,52.48
2023-05-06T22:19:21.434Z,52.53
2023-05-06T22:21:48.333Z,52.39
2023-05-06T22:24:15.313Z,52.46
2023-05-06T22:26:42.172Z,52.62
2023-05-06T22:29:09.054Z,52.61
2023-05-06T22:31:36.158Z,52.70
2023-05-06T22:34:04.871Z,52.75
2023-05-06T22:36:34.613Z,52.89
2023-05-06T22:39:01.663Z,52.92
2023-05-06T22:41:29.459Z,53.02
2023-05-06T22:43:57.429Z,53.09
2023-05-06T22:46:24.454Z,53.31
2023-05-06T22:48:51.923Z,53.39
2023-05-06T22:51:20.472Z,53.62
2023-05-06T22:53:47.888Z,53.55
2023-05-06T22:56:14.810Z,53.70
2023-05-06T22:58:41.781Z,53.82
2023-05-06T23:01:08.892Z,53.94
2023-05-06T23:03:36.104Z,53.98
2023-05-06T23:06:04.511Z,54.05
2023-05-06T23:08:31.670Z,54.05
2023-05-06T23:10:58.573Z,54.02
2023-05-06T23:13:26.550Z,53.93
2023-05-06T23:15:56.855Z,53.79
2023-05-06T23:18:23.781Z,53.83
2023-05-06T23:20:50.664Z,53.82
2023-05-06T23:23:17.568Z,53.71
2023-05-06T23:25:44.384Z,53.72
2023-05-06T23:28:11.216Z,53.72
2023-05-06T23:30:38.341Z,53.77
2023-05-06T23:33:05.203Z,53.81
2023-05-06T23:35:32.472Z,53.88
2023-05-06T23:37:59.337Z,53.88
2023-05-06T23:40:26.209Z,53.93
2023-05-06T23:42:53.102Z,54.10
2023-05-06T23:45:20.470Z,54.25
2023-05-06T23:47:47.364Z,54.26
2023-05-06T23:50:16.530Z,54.29
2023-05-06T23:52:43.459Z,54.38
2023-05-06T23:55:10.749Z,54.29
